»·PEaware :: N364KQ KSBP-KMHV

N364KQ :: KSBP-KMHV

FLIGHT INFORMATION

Flight Status: Arrived
Operator: Privately registered:
United States
More flights under this callsign
Pilot: Brian K. (18535)
Aircraft: CESSNA 172 SKYHAWK
(C172)
More flights by this aircraft type
Origin: KSBP San Luis Co Regl
United States
Destination: KMHV Mojave
United States
More flights between these airports :: More routes between these airports
Route: +
File this flight plan on PilotEdge
Remarks:
Altitude:
(Current/Filed)
9,500ft
Speed:
(Current/Filed)
0kts
Departed: 08-Oct-18 04:47 PM
Arrived: 08-Oct-18 05:58 PM
Distance/Time
Traveled:
122nm/1:11
Distance/Time
To Go:
Arrived

Flight Plot

Page will automatically refresh every two minutes.

Flight plan parsing failed; only flown route is shown


Map Options




Map Legend


Flown Route
Filed Route
Departure Airport
Arrival Airport
Navaid (VOR, NDB)
Fix

Horizontal Profiles

Position Reports

Time Latitude Longitude Heading Altitude Ground
Speed
08-Oct-18 16:48 35.213068 -120.558888 92 3195ft 107kts
08-Oct-18 16:49 35.216443 -120.522719 84 3755ft 109kts
08-Oct-18 16:50 35.219321 -120.485855 88 4280ft 110kts
08-Oct-18 16:51 35.224019 -120.448711 78 4749ft 112kts
08-Oct-18 16:52 35.224321 -120.410966 87 5212ft 110kts
08-Oct-18 16:53 35.223106 -120.376856 92 5578ft 112kts
08-Oct-18 16:54 35.219165 -120.342828 99 5923ft 113kts
08-Oct-18 16:55 35.217137 -120.306449 86 6332ft 114kts
08-Oct-18 16:56 35.215311 -120.270984 97 6754ft 111kts
08-Oct-18 16:57 35.211250 -120.233289 93 7146ft 111kts
08-Oct-18 16:58 35.208295 -120.195448 95 7510ft 112kts
08-Oct-18 16:59 35.205050 -120.157342 91 7857ft 112kts
08-Oct-18 17:00 35.201740 -120.119302 91 8190ft 113kts
08-Oct-18 17:01 35.200176 -120.083615 90 8492ft 113kts
08-Oct-18 17:02 35.198397 -120.046618 84 8811ft 112kts
08-Oct-18 17:03 35.197439 -120.008583 90 9121ft 113kts
08-Oct-18 17:04 35.194667 -119.970273 88 9375ft 113kts
08-Oct-18 17:05 35.191719 -119.931803 89 9504ft 113kts
08-Oct-18 17:06 35.189134 -119.893455 91 9564ft 115kts
08-Oct-18 17:07 35.185549 -119.853743 89 9519ft 118kts
08-Oct-18 17:08 35.183047 -119.814946 88 9551ft 111kts
08-Oct-18 17:09 35.181448 -119.776967 86 9571ft 111kts
08-Oct-18 17:10 35.179208 -119.740075 93 9614ft 112kts
08-Oct-18 17:11 35.172446 -119.703082 87 9643ft 112kts
08-Oct-18 17:12 35.170594 -119.665614 89 9670ft 112kts
08-Oct-18 17:13 35.168379 -119.627504 86 9686ft 112kts
08-Oct-18 17:14 35.166353 -119.588972 90 9680ft 113kts
08-Oct-18 17:15 35.163137 -119.549205 91 9512ft 125kts
08-Oct-18 17:16 35.159216 -119.508629 91 9388ft 119kts
08-Oct-18 17:17 35.155424 -119.470555 89 9302ft 112kts
08-Oct-18 17:18 35.152284 -119.433278 90 9316ft 111kts
08-Oct-18 17:19 35.149379 -119.396110 91 9413ft 111kts
08-Oct-18 17:20 35.143755 -119.360019 86 9477ft 110kts
08-Oct-18 17:21 35.143561 -119.330426 82 9533ft 109kts
08-Oct-18 17:22 35.144311 -119.293873 83 9574ft 110kts
08-Oct-18 17:23 35.145951 -119.258055 80 9599ft 111kts
08-Oct-18 17:24 35.146649 -119.220542 82 9576ft 115kts
08-Oct-18 17:25 35.152179 -119.183730 70 9578ft 112kts
08-Oct-18 17:26 35.157372 -119.148132 74 9567ft 112kts
08-Oct-18 17:27 35.163695 -119.111032 71 9541ft 112kts
08-Oct-18 17:28 35.172718 -119.076494 67 9519ft 111kts
08-Oct-18 17:29 35.179973 -119.039700 68 9499ft 111kts
08-Oct-18 17:30 35.188462 -119.006077 66 9465ft 113kts
08-Oct-18 17:31 35.195473 -118.969113 74 9439ft 115kts
08-Oct-18 17:32 35.203058 -118.932035 71 9435ft 114kts
08-Oct-18 17:33 35.209467 -118.895162 77 9509ft 109kts
08-Oct-18 17:34 35.217520 -118.859151 65 9539ft 110kts
08-Oct-18 17:35 35.228047 -118.823626 68 9555ft 113kts
08-Oct-18 17:36 35.236152 -118.786216 78 9575ft 115kts
08-Oct-18 17:37 35.237029 -118.748290 93 9574ft 118kts
08-Oct-18 17:38 35.233719 -118.709808 97 9584ft 119kts
08-Oct-18 17:39 35.225475 -118.671688 107 9612ft 117kts
08-Oct-18 17:40 35.219525 -118.632652 104 9602ft 119kts
08-Oct-18 17:41 35.203640 -118.598032 124 9510ft 113kts
08-Oct-18 17:42 35.185744 -118.567756 128 9179ft 111kts
08-Oct-18 17:43 35.167678 -118.537344 128 8762ft 107kts
08-Oct-18 17:44 35.149932 -118.508240 127 8222ft 108kts
08-Oct-18 17:45 35.132653 -118.478658 128 7702ft 107kts
08-Oct-18 17:46 35.114233 -118.450416 130 7119ft 107kts
08-Oct-18 17:47 35.096366 -118.421477 126 6555ft 107kts
08-Oct-18 17:48 35.079526 -118.392189 118 6048ft 106kts
08-Oct-18 17:49 35.066725 -118.359954 119 5567ft 107kts
08-Oct-18 17:50 35.053566 -118.328938 99 5094ft 106kts
08-Oct-18 17:51 35.051731 -118.294117 89 4615ft 105kts
08-Oct-18 17:52 35.051245 -118.258962 89 4285ft 103kts
08-Oct-18 17:53 35.050397 -118.225377 91 4075ft 99kts
08-Oct-18 17:54 35.049562 -118.192453 90 3976ft 97kts
08-Oct-18 17:55 35.047940 -118.160421 96 3880ft 96kts
08-Oct-18 17:56 35.047119 -118.130034 93 3731ft 79kts
08-Oct-18 17:57 35.054184 -118.113401 306 3255ft 62kts
08-Oct-18 17:58 35.059189 -118.130188 266 3001ft 52kts
08-Oct-18 17:59 35.059165 -118.146949 267 2802ft 41kts
08-Oct-18 18:00 35.059220 -118.156211 270 2795ft 15kts
08-Oct-18 18:01 35.058241 -118.157719 170 2795ft 2kts
08-Oct-18 18:02 35.057117 -118.159050 185 2795ft 7kts
08-Oct-18 18:03 35.057092 -118.159053 184 2795ft 0kts

Navigation Log

Ident Type
Flight plan parsing failed, navigation log unavailable